createdAt,value
2019-02-02T00:12:02.749Z,4.0
2019-02-02T00:28:49.964Z,4.0
2019-02-02T00:45:37.025Z,4.0
2019-02-02T01:02:23.961Z,4.0
2019-02-02T01:19:10.877Z,4.0
2019-02-02T01:35:57.746Z,4.0
2019-02-02T01:52:44.393Z,3.9
2019-02-02T02:09:31.012Z,3.9
2019-02-02T02:26:17.723Z,3.9
2019-02-02T02:43:04.170Z,3.9
2019-02-02T02:59:50.787Z,3.9
2019-02-02T03:16:37.379Z,3.9
2019-02-02T03:33:23.907Z,3.9
2019-02-02T03:50:10.538Z,3.9
2019-02-02T04:06:56.720Z,3.9
2019-02-02T04:23:42.869Z,3.9
2019-02-02T04:40:29.172Z,3.8
2019-02-02T04:57:15.678Z,3.8
2019-02-02T05:14:02.221Z,3.8
2019-02-02T05:30:48.716Z,3.8
2019-02-02T05:47:35.355Z,3.8
2019-02-02T06:04:21.948Z,3.8
2019-02-02T06:21:08.487Z,3.8
2019-02-02T06:37:55.053Z,3.8
2019-02-02T06:54:42.162Z,3.8
2019-02-02T07:11:28.340Z,3.8
2019-02-02T07:28:14.945Z,3.7
2019-02-02T07:45:01.499Z,3.8
2019-02-02T08:01:48.190Z,3.8
2019-02-02T08:18:34.696Z,3.9
2019-02-02T08:35:21.273Z,4.0
2019-02-02T08:52:07.889Z,4.2
2019-02-02T09:08:54.368Z,4.2
2019-02-02T09:25:41.499Z,4.3
2019-02-02T09:42:28.465Z,4.5
2019-02-02T09:59:15.335Z,4.5
2019-02-02T10:16:02.252Z,4.5
2019-02-02T10:32:49.107Z,4.5
2019-02-02T10:49:35.865Z,4.5
2019-02-02T11:06:22.886Z,4.6
2019-02-02T11:23:09.575Z,4.5
2019-02-02T11:39:56.334Z,4.5
2019-02-02T11:56:43.169Z,4.5
2019-02-02T12:13:30.130Z,4.5
2019-02-02T12:30:16.831Z,4.5
2019-02-02T12:47:03.570Z,4.5
2019-02-02T13:04:01.287Z,4.5
2019-02-02T13:20:37.398Z,4.5
2019-02-02T13:37:24.250Z,4.5
2019-02-02T13:47:28.209Z,4.5
2019-02-02T14:04:15.115Z,4.5
2019-02-02T14:21:05.118Z,4.5
2019-02-02T14:37:49.236Z,4.5
2019-02-02T14:54:37.901Z,4.5
2019-02-02T15:11:23.249Z,4.4
2019-02-02T15:28:10.263Z,4.4
2019-02-02T15:44:57.235Z,4.4
2019-02-02T16:01:44.233Z,4.4
2019-02-02T16:18:31.836Z,4.3
2019-02-02T16:35:18.353Z,4.3
2019-02-02T16:48:44.110Z,4.3
2019-02-02T17:05:31.290Z,4.3
2019-02-02T17:22:18.356Z,4.3
2019-02-02T17:39:05.121Z,4.2
2019-02-02T17:55:51.444Z,4.2
2019-02-02T18:12:37.852Z,4.2
2019-02-02T18:29:24.510Z,4.2
2019-02-02T18:46:10.692Z,4.2
2019-02-02T19:02:57.118Z,4.2
2019-02-02T19:19:43.417Z,4.2
2019-02-02T19:36:29.892Z,4.2
2019-02-02T19:53:16.244Z,4.2
2019-02-02T20:10:02.626Z,4.1
2019-02-02T20:26:49.003Z,4.1
2019-02-02T20:43:35.523Z,4.1
2019-02-02T21:00:21.890Z,4.1
2019-02-02T21:17:08.403Z,4.1
2019-02-02T21:33:55.127Z,4.1
2019-02-02T21:50:41.415Z,4.1
2019-02-02T22:07:27.931Z,4.1
2019-02-02T22:24:14.602Z,4.1
2019-02-02T22:41:01.237Z,4.1
2019-02-02T22:57:47.771Z,4.0
2019-02-02T23:14:34.292Z,4.0
2019-02-02T23:31:21.045Z,4.0
2019-02-02T23:48:07.621Z,4.0
